createdAt,value
2018-11-14T00:03:30.636Z,101280.26
2018-11-14T00:07:34.129Z,101292.55
2018-11-14T00:11:37.661Z,101293.81
2018-11-14T00:15:41.142Z,101285.91
2018-11-14T00:19:44.595Z,101294.65
2018-11-14T00:23:48.318Z,101306.89
2018-11-14T00:27:51.825Z,101298.51
2018-11-14T00:31:55.246Z,101301.53
2018-11-14T00:35:59.022Z,101308.06
2018-11-14T00:40:02.506Z,101296.17
2018-11-14T00:44:06.072Z,101295.29
2018-11-14T00:48:15.935Z,101304.02
2018-11-14T00:52:19.416Z,101314.90
2018-11-14T00:56:22.895Z,101310.45
2018-11-14T01:00:26.610Z,101314.36
2018-11-14T01:04:30.117Z,101308.16
2018-11-14T01:08:33.627Z,101323.86
2018-11-14T01:12:37.095Z,101313.23
2018-11-14T01:16:40.588Z,101317.12
2018-11-14T01:20:44.073Z,101310.40
2018-11-14T01:24:47.551Z,101307.77
2018-11-14T01:28:51.019Z,101308.54
2018-11-14T01:32:55.033Z,101305.77
2018-11-14T01:36:58.557Z,101319.66
2018-11-14T01:41:02.130Z,101311.76
2018-11-14T01:45:08.258Z,101308.68
2018-11-14T01:49:11.805Z,101312.72
2018-11-14T01:53:15.448Z,101309.23
2018-11-14T01:57:18.904Z,101314.48
2018-11-14T02:01:22.409Z,101317.12
2018-11-14T02:05:25.914Z,101310.16
2018-11-14T02:09:29.486Z,101310.69
2018-11-14T02:13:32.930Z,101306.69
2018-11-14T02:17:36.728Z,101296.94
2018-11-14T02:21:40.207Z,101303.86
2018-11-14T02:25:43.754Z,101307.41
2018-11-14T02:29:47.260Z,101306.88
2018-11-14T02:33:50.734Z,101316.96
2018-11-14T02:37:54.212Z,101309.89
2018-11-14T02:41:57.671Z,101305.80
2018-11-14T02:46:01.233Z,101313.68
2018-11-14T02:50:04.987Z,101313.62
2018-11-14T02:54:08.483Z,101321.84
2018-11-14T02:58:11.979Z,101315.14
2018-11-14T03:02:15.471Z,101315.88
2018-11-14T03:06:18.922Z,101317.17
2018-11-14T03:10:22.578Z,101323.65
2018-11-14T03:14:26.091Z,101334.57
2018-11-14T03:18:29.605Z,101327.98
2018-11-14T03:22:33.083Z,101327.44
2018-11-14T03:26:36.766Z,101325.19
2018-11-14T03:30:40.202Z,101329.52
2018-11-14T03:34:43.691Z,101335.16
2018-11-14T03:38:47.452Z,101329.31
2018-11-14T03:42:50.926Z,101340.21
2018-11-14T03:46:54.413Z,101337.47
2018-11-14T03:50:57.912Z,101344.42
2018-11-14T03:55:01.735Z,101338.13
2018-11-14T03:59:05.335Z,101339.44
2018-11-14T04:03:09.061Z,101335.88
2018-11-14T04:07:12.676Z,101343.61
2018-11-14T04:11:16.427Z,101341.41
2018-11-14T04:15:19.908Z,101345.85
2018-11-14T04:19:23.397Z,101342.29
2018-11-14T04:23:26.914Z,101344.41
2018-11-14T04:27:30.371Z,101343.48
2018-11-14T04:31:33.865Z,101342.99
2018-11-14T04:35:37.350Z,101347.05
2018-11-14T04:39:40.869Z,101351.48
2018-11-14T04:43:44.392Z,101353.34
2018-11-14T04:47:47.930Z,101358.12
2018-11-14T04:51:51.386Z,101352.80
2018-11-14T04:55:55.115Z,101361.06
2018-11-14T04:59:58.580Z,101362.20
2018-11-14T05:04:02.051Z,101362.97
2018-11-14T05:08:06.216Z,101366.36
2018-11-14T05:12:09.698Z,101367.94
2018-11-14T05:16:13.146Z,101369.52
2018-11-14T05:20:17.787Z,101378.59
2018-11-14T05:24:21.328Z,101376.72
2018-11-14T05:28:24.775Z,101376.06
2018-11-14T05:32:28.265Z,101378.06
2018-11-14T05:36:31.758Z,101381.17
2018-11-14T05:40:35.235Z,101384.26
2018-11-14T05:44:38.753Z,101391.69
2018-11-14T05:48:42.274Z,101393.37
2018-11-14T05:52:45.688Z,101392.31
2018-11-14T05:56:49.147Z,101388.63
2018-11-14T06:00:52.644Z,101399.02
2018-11-14T06:04:56.078Z,101400.70
2018-11-14T06:08:59.588Z,101406.41
2018-11-14T06:13:03.058Z,101405.59
2018-11-14T06:17:06.561Z,101411.30
2018-11-14T06:21:10.033Z,101411.30
2018-11-14T06:25:33.317Z,101411.27
2018-11-14T06:29:36.800Z,101407.73
2018-11-14T06:33:40.331Z,101409.03
2018-11-14T06:37:43.764Z,101404.70
2018-11-14T06:41:47.304Z,101412.98
2018-11-14T06:45:50.724Z,101424.80
2018-11-14T06:49:54.272Z,101421.72
2018-11-14T06:53:58.222Z,101427.42
2018-11-14T06:58:01.702Z,101420.73
2018-11-14T07:02:05.213Z,101425.05
2018-11-14T07:06:08.490Z,101423.98
2018-11-14T07:10:13.886Z,101427.47
2018-11-14T07:14:17.349Z,101424.47
2018-11-14T07:18:20.828Z,101421.48
2018-11-14T07:22:24.309Z,101430.24
2018-11-14T07:26:27.779Z,101434.30
2018-11-14T07:30:31.745Z,101429.23
2018-11-14T07:34:35.259Z,101423.72
2018-11-14T07:38:46.646Z,101432.72
2018-11-14T07:42:50.127Z,101429.03
2018-11-14T07:46:53.590Z,101427.95
2018-11-14T07:50:57.118Z,101428.21
2018-11-14T07:55:00.601Z,101429.49
2018-11-14T07:59:04.094Z,101426.23
2018-11-14T08:03:07.608Z,101421.33
2018-11-14T08:07:11.119Z,101421.62
2018-11-14T08:11:14.599Z,101419.20
2018-11-14T08:15:18.131Z,101421.68
2018-11-14T08:19:21.623Z,101421.86
2018-11-14T08:23:25.089Z,101422.52
2018-11-14T08:27:28.596Z,101411.34
2018-11-14T08:31:32.025Z,101415.20
2018-11-14T08:35:35.497Z,101406.15
2018-11-14T08:39:39.028Z,101406.37
2018-11-14T08:43:42.469Z,101405.30
2018-11-14T08:47:45.942Z,101408.98
2018-11-14T08:51:49.404Z,101410.55
2018-11-14T08:55:52.908Z,101406.31
2018-11-14T08:59:56.388Z,101413.93
2018-11-14T09:03:59.863Z,101418.86
2018-11-14T09:08:03.831Z,101410.53
2018-11-14T09:12:07.669Z,101406.38
2018-11-14T09:16:11.155Z,101408.62
2018-11-14T09:20:15.891Z,101405.89
2018-11-14T09:24:19.423Z,101405.95
2018-11-14T09:28:22.951Z,101404.44
2018-11-14T09:32:26.380Z,101399.75
2018-11-14T09:36:29.852Z,101405.55
2018-11-14T09:40:33.266Z,101409.25
2018-11-14T09:44:37.243Z,101407.50
2018-11-14T09:48:40.587Z,101410.28
2018-11-14T09:52:45.319Z,101407.87
2018-11-14T09:56:48.903Z,101391.57
2018-11-14T10:00:52.379Z,101389.45
2018-11-14T10:04:55.848Z,101386.39
2018-11-14T10:08:59.393Z,101378.09
2018-11-14T10:13:03.696Z,101388.77
2018-11-14T10:17:07.432Z,101381.33
2018-11-14T10:21:11.043Z,101372.59
2018-11-14T10:25:15.295Z,101372.77
2018-11-14T10:29:19.753Z,101372.94
2018-11-14T10:33:23.530Z,101368.14
2018-11-14T10:37:27.674Z,101359.00
2018-11-14T10:41:31.997Z,101353.28
2018-11-14T10:45:35.470Z,101361.60
2018-11-14T10:49:38.954Z,101355.97
2018-11-14T10:53:42.475Z,101344.58
2018-11-14T10:57:45.994Z,101330.03
2018-11-14T11:01:54.728Z,101320.88
2018-11-14T11:06:03.773Z,101327.19
2018-11-14T11:10:12.419Z,101340.59
2018-11-14T11:14:21.081Z,101325.76
2018-11-14T11:18:25.966Z,101323.23
2018-11-14T11:22:29.497Z,101313.31
2018-11-14T11:26:32.925Z,101295.72
2018-11-14T11:30:36.792Z,101291.33
2018-11-14T11:34:40.226Z,101283.88
2018-11-14T11:38:43.738Z,101287.00
2018-11-14T11:42:47.271Z,101286.67
2018-11-14T11:46:50.785Z,101280.98
2018-11-14T11:50:54.418Z,101279.30
2018-11-14T11:54:57.932Z,101282.09
2018-11-14T11:59:02.036Z,101276.95
2018-11-14T12:03:05.601Z,101275.73
2018-11-14T12:07:09.061Z,101280.14
2018-11-14T12:11:12.548Z,101269.95
2018-11-14T12:15:16.061Z,101259.25
2018-11-14T12:19:19.568Z,101253.63
2018-11-14T12:23:22.998Z,101254.98
2018-11-14T12:27:26.491Z,101249.63
2018-11-14T12:31:29.995Z,101242.19
2018-11-14T12:35:33.515Z,101247.03
2018-11-14T12:39:37.088Z,101234.77
2018-11-14T12:43:40.591Z,101235.28
2018-11-14T12:47:44.116Z,101227.94
2018-11-14T12:51:47.606Z,101224.14
2018-11-14T12:55:51.109Z,101218.38
2018-11-14T12:59:54.758Z,101211.34
2018-11-14T13:03:58.373Z,101210.08
2018-11-14T13:08:01.857Z,101203.95
2018-11-14T13:12:05.565Z,101201.44
2018-11-14T13:16:09.232Z,101204.17
2018-11-14T13:20:16.809Z,101206.81
2018-11-14T13:24:20.297Z,101202.91
2018-11-14T13:28:23.810Z,101196.33
2018-11-14T13:32:27.313Z,101193.66
2018-11-14T13:36:31.210Z,101194.52
2018-11-14T13:40:34.853Z,101198.88
2018-11-14T13:44:38.702Z,101200.55
2018-11-14T13:48:42.284Z,101210.65
2018-11-14T13:52:45.907Z,101217.19
2018-11-14T13:56:49.418Z,101216.28
2018-11-14T14:00:53.824Z,101217.16
2018-11-14T14:04:57.342Z,101206.59
2018-11-14T14:09:00.836Z,101201.75
2018-11-14T14:13:05.104Z,101196.44
2018-11-14T14:17:08.639Z,101200.80
2018-11-14T14:21:12.232Z,101203.48
2018-11-14T14:25:16.826Z,101207.41
2018-11-14T14:29:20.645Z,101207.88
2018-11-14T14:33:24.180Z,101208.29
2018-11-14T14:37:27.709Z,101211.34
2018-11-14T14:41:31.176Z,101210.05
2018-11-14T14:45:35.318Z,101208.66
2018-11-14T14:49:38.813Z,101215.30
2018-11-14T14:53:42.261Z,101214.39
2018-11-14T14:57:46.436Z,101217.00
2018-11-14T15:01:49.907Z,101217.34
2018-11-14T15:05:53.493Z,101219.44
2018-11-14T15:09:57.034Z,101222.48
2018-11-14T15:14:00.534Z,101227.26
2018-11-14T15:18:04.113Z,101230.81
2018-11-14T15:22:07.638Z,101226.86
2018-11-14T15:26:11.218Z,101225.53
2018-11-14T15:30:18.517Z,101227.19
2018-11-14T15:34:22.081Z,101223.57
2018-11-14T15:38:25.716Z,101223.91
2018-11-14T15:42:29.426Z,101226.84
2018-11-14T15:46:33.015Z,101223.66
2018-11-14T15:50:36.625Z,101226.12
2018-11-14T15:54:40.189Z,101217.17
2018-11-14T15:58:43.847Z,101219.70
2018-11-14T16:02:47.352Z,101213.84
2018-11-14T16:06:51.109Z,101226.03
2018-11-14T16:10:54.985Z,101220.17
2018-11-14T16:14:58.543Z,101224.86
2018-11-14T16:19:02.103Z,101231.21
2018-11-14T16:23:05.762Z,101234.92
2018-11-14T16:27:09.199Z,101232.56
2018-11-14T16:31:12.790Z,101234.95
2018-11-14T16:35:16.298Z,101230.83
2018-11-14T16:39:19.856Z,101234.70
2018-11-14T16:43:23.365Z,101232.90
2018-11-14T16:47:27.030Z,101239.84
2018-11-14T16:51:30.538Z,101242.30
2018-11-14T16:55:34.372Z,101238.17
2018-11-14T16:59:37.859Z,101240.55
2018-11-14T17:03:41.441Z,101245.62
2018-11-14T17:07:44.828Z,101248.87
2018-11-14T17:11:48.342Z,101246.83
2018-11-14T17:15:51.835Z,101245.32
2018-11-14T17:19:55.313Z,101246.50
2018-11-14T17:23:58.830Z,101242.94
2018-11-14T17:28:02.333Z,101246.34
2018-11-14T17:32:06.049Z,101249.81
2018-11-14T17:36:09.899Z,101252.74
2018-11-14T17:40:15.477Z,101252.01
2018-11-14T17:44:18.990Z,101243.52
2018-11-14T17:48:22.540Z,101244.21
2018-11-14T17:56:28.523Z,101243.53
2018-11-14T18:00:33.133Z,101242.06
2018-11-14T18:04:36.590Z,101244.05
2018-11-14T18:08:40.329Z,101252.59
2018-11-14T18:12:44.641Z,101254.55
2018-11-14T18:16:48.306Z,101260.11
2018-11-14T18:20:51.803Z,101257.28
2018-11-14T18:24:55.824Z,101262.27
2018-11-14T18:28:59.413Z,101265.51
2018-11-14T18:33:03.456Z,101270.70
2018-11-14T18:37:06.961Z,101268.06
2018-11-14T18:41:10.478Z,101268.45
2018-11-14T18:45:26.798Z,101272.66
2018-11-14T18:49:30.215Z,101275.13
2018-11-14T18:53:33.675Z,101279.84
2018-11-14T18:57:37.278Z,101284.05
2018-11-14T19:01:40.710Z,101289.23
2018-11-14T19:05:44.206Z,101290.00
2018-11-14T19:09:47.786Z,101290.53
2018-11-14T19:13:52.938Z,101298.88
2018-11-14T19:17:56.825Z,101295.94
2018-11-14T19:22:00.298Z,101288.81
2018-11-14T19:26:03.794Z,101289.52
2018-11-14T19:30:09.613Z,101298.02
2018-11-14T19:34:13.212Z,101298.28
2018-11-14T19:38:16.723Z,101303.07
2018-11-14T19:42:20.224Z,101305.01
2018-11-14T19:46:23.717Z,101314.84
2018-11-14T19:50:27.418Z,101314.27
2018-11-14T19:54:30.947Z,101316.70
2018-11-14T19:58:34.385Z,101312.31
2018-11-14T20:02:37.859Z,101310.52
2018-11-14T20:06:41.573Z,101305.64
2018-11-14T20:10:45.052Z,101302.46
2018-11-14T20:14:48.541Z,101301.45
2018-11-14T20:18:52.051Z,101307.44
2018-11-14T20:22:55.530Z,101302.02
2018-11-14T20:26:59.084Z,101308.38
2018-11-14T20:31:02.550Z,101307.31
2018-11-14T20:35:06.819Z,101312.44
2018-11-14T20:39:11.793Z,101309.69
2018-11-14T20:43:15.273Z,101311.86
2018-11-14T20:47:18.738Z,101315.66
2018-11-14T20:51:22.215Z,101317.67
2018-11-14T20:55:25.821Z,101319.94
2018-11-14T20:59:29.357Z,101314.35
2018-11-14T21:03:32.818Z,101322.31
2018-11-14T21:07:36.359Z,101322.91
2018-11-14T21:11:39.818Z,101321.34
2018-11-14T21:15:43.440Z,101329.78
2018-11-14T21:19:46.863Z,101332.77
2018-11-14T21:23:50.324Z,101328.70
2018-11-14T21:27:54.345Z,101334.30
2018-11-14T21:31:57.844Z,101329.16
2018-11-14T21:36:01.285Z,101325.28
2018-11-14T21:40:06.096Z,101321.08
2018-11-14T21:44:09.537Z,101322.67
2018-11-14T21:48:14.301Z,101323.75
2018-11-14T21:52:18.113Z,101330.02
2018-11-14T21:56:21.891Z,101321.88
2018-11-14T22:00:30.619Z,101316.55
2018-11-14T22:04:34.086Z,101318.45
2018-11-14T22:08:37.542Z,101319.98
2018-11-14T22:12:41.548Z,101318.21
2018-11-14T22:16:45.078Z,101319.45
2018-11-14T22:20:48.601Z,101318.95
2018-11-14T22:24:52.082Z,101326.34
2018-11-14T22:28:55.543Z,101319.94
2018-11-14T22:33:00.126Z,101324.69
2018-11-14T22:37:03.724Z,101323.45
2018-11-14T22:41:07.191Z,101310.78
2018-11-14T22:45:12.994Z,101302.80
2018-11-14T22:49:16.426Z,101302.23
2018-11-14T22:53:19.885Z,101308.59
2018-11-14T22:57:23.352Z,101311.06
2018-11-14T23:01:26.826Z,101313.19
2018-11-14T23:05:30.399Z,101298.27
2018-11-14T23:09:33.875Z,101298.05
2018-11-14T23:13:37.376Z,101301.02
2018-11-14T23:17:40.811Z,101305.44
2018-11-14T23:21:44.341Z,101300.14
2018-11-14T23:25:47.841Z,101290.56
2018-11-14T23:29:51.303Z,101289.25
2018-11-14T23:33:54.788Z,101284.44
2018-11-14T23:38:02.526Z,101286.63
2018-11-14T23:42:06.058Z,101286.14
2018-11-14T23:46:09.590Z,101292.43
2018-11-14T23:50:15.555Z,101281.75
2018-11-14T23:54:19.206Z,101277.22
2018-11-14T23:58:22.703Z,101270.47
